Flight Track Log - Related Links

Times and Time Zones

All times are in EDT time to prevent confusion due to time zone crossing. See the ACA7034 flight status page for this flight to view local times or setup timezone preferences in your user account.

Time Position Orientation Groundspeed Altitude Reporting Facility
EDT Latitude Longitude Course Direction KTS MPH feet Rate Location/Type
Wed 11:42:09 AM 40.3847 -80.1700 99° East 236 272 5,900  Level Cleveland Center
Wed 11:43:11 AM 40.3094 -80.1492 168° South 289 333 9,900 2,829 Climbing Cleveland Center
Wed 11:44:12 AM 40.2275 -80.1167 163° South 320 368 11,700 2,341 Climbing Cleveland Center
Wed 11:45:14 AM 40.1056 -80.0686 163° South 389 448 14,700 2,710 Climbing Cleveland Center
Wed 11:46:00 AM 40.1290 -79.5597 100° East  Level Estimated
Wed 11:46:16 AM 40.0000 -80.0264 163° South 396 456 17,300  Level Cleveland Center
Wed 11:47:00 AM 40.0682 -79.4482 99° East  Level Estimated
Wed 11:47:18 AM 39.8894 -79.9856 164° South 409 471 19,300  Level Cleveland Center
Wed 11:48:19 AM 39.7764 -79.9303 159° South 430 495 21,400 1,805 Climbing Cleveland Center
Wed 11:49:21 AM 39.6719 -79.8436 147° Southeast 444 511 23,000 774 Climbing Cleveland Center
Wed 11:50:23 AM 39.5872 -79.7300 134° Southeast 440 506 23,000  Level Cleveland Center
Wed 11:51:18 AM 39.5203 -79.5867 121° Southeast 438 504 23,000  Level Washington Center
Wed 11:52:19 AM 39.4836 -79.4367 108° East 423 487 23,000  Level Washington Center
Wed 11:53:19 AM 39.4572 -79.2822 102° East 428 493 23,000 -446 Level Washington Center
Wed 11:54:20 AM 39.4283 -79.1275 104° East 433 498 22,100 -966 Descending Washington Center
Wed 11:55:17 AM 39.3972 -78.9836 106° East 428 493 21,100 -1,017 Descending Washington Center
Wed 11:56:18 AM 39.3761 -78.8403 101° East 415 478 20,100 -1,426 Descending Washington Center
Wed 11:57:19 AM 39.3486 -78.6969 104° East 410 472 18,200 -2,033 Descending Washington Center
Wed 11:58:19 AM 39.3250 -78.5589 102° East 400 460 16,000 -1,983 Descending Washington Center
Wed 11:59:20 AM 39.3044 -78.4561 104° East 387 445 14,200 -2,380 Descending Washington Center
Wed 12:00:20 PM 39.2639 -78.3206 111° Southeast 350 403 11,200 -1,627 Descending Washington Center
Wed 12:01:18 PM 39.2178 -78.2358 125° Southeast 317 365 11,000 -252 Descending Washington Center
Wed 12:02:19 PM 39.1739 -78.1539 125° Southeast 294 338 10,700 -942 Descending Washington Center
Wed 12:03:19 PM 39.1297 -78.0694 124° Southeast 281 323 9,100 -843 Descending Washington Center
Wed 12:04:20 PM 39.0875 -77.9903 124° Southeast 281 323 9,000 -590 Descending Washington Center
Wed 12:05:21 PM 39.0453 -77.9089 124° Southeast 276 318 7,900 -1,008 Descending Washington Center
Wed 12:06:19 PM 39.0031 -77.8300 125° Southeast 264 304 7,000 -958 Descending Washington Center
Wed 12:07:20 PM 38.9689 -77.7650 124° Southeast 259 298 6,000 -496 Descending Washington Center
Wed 12:08:20 PM 38.9581 -77.6711 98° East 243 280 6,000  Level Washington Center
Wed 12:09:44 PM 38.9000 -77.6000 136° Southeast 227 261 6,000 -87 Level Potomac TRACON
Wed 12:10:38 PM 38.8500 -77.5667 153° Southeast 230 265 5,800 -737 Descending Potomac TRACON
Wed 12:11:38 PM 38.7833 -77.5667 180° South 230 265 4,600 -1,200 Descending Potomac TRACON
Wed 12:12:38 PM 38.7667 -77.5167 113° Southeast 197 227 3,400 -762 Descending Potomac TRACON
Wed 12:13:44 PM 38.8000 -77.4667 49° Northeast 171 197 3,000 -500 Descending Potomac TRACON
Wed 12:14:38 PM 38.8333 -77.4667 360° North 171 197 2,400 -737 Descending Potomac TRACON
Wed 12:15:38 PM 38.8833 -77.4667 360° North 145 167 1,600 -750 Descending Potomac TRACON
Wed 12:16:38 PM 38.9167 -77.4667 360° North 117 135 900 -700 Descending Potomac TRACON
Wed 12:18:00 PM 38.9333 -77.4500 165° South  Level FlightAware Approximate
Wed 12:25:00 PM 38.9474 -77.4599 165° South  Level Estimated
Wed 12:26:00 PM 38.9474 -77.4599 165° South  Level Estimated

Login

Don't have an account? Register now (free) for customized features, flight alerts, and more!